SGAS/ASU METAR and TAF weather

Enter ICAO airport designator
Station Type Date Time Source
SGAS METAR 2023/01/29 18:00 UTC NOAA

SGAS 291800Z 20004KT 130V310 9999 SCT033 FEW040TCU 36/21 Q1007


Station Type Date Time Source
SGAS Decoded METAR 2023/01/29 18:00 UTC NOAA

Asuncion / Aeropuerto, Paraguay (SGAS) 25-16S 057-38W 101M
Jan 29, 2023 - 01:00 PM EST / 2023.01.29 1800 UTC
Wind: from the SSW (200 degrees) at 5 MPH (4 KT) (direction variable):0
Visibility: greater than 7 mile(s):0
Sky conditions: partly cloudy
Weather: Towering cumulus clouds observed
Temperature: 96 F (36 C)
Heat index: 101.5 F (38.6 C):1
Dew Point: 69 F (21 C)
Relative Humidity: 41%
Pressure (altimeter): 29.74 in. Hg (1007 hPa)
ob: SGAS 291800Z 20004KT 130V310 9999 SCT033 FEW040TCU 36/21 Q1007
cycle: 18

Station Type Date Time Source
SGAS TAF 2023/01/29 18:51 UTC NOAA

TAF TAF SGAS 291648Z 2918/3018 09008KT 7000 TSRA BKN025 FEW040CB TX36/2919Z TN23/3009Z PROB30 2920/2923 5000 TSRA BKN020 FEW040CB
BECMG 3000/3002 18005KT 8000 -RA BKN020
BECMG 3004/3008 06008KT 9999 BKN027

Example: see airport list